Schillplate — ZDJJ8 — position and weather

sailwx.info

Track history (hours):
 
Tides and Currents Weather Stations Pressure Air Temp Water Temp Dewpoint Dewpoint Depression Visibility Wind Speed Wind Dir Waves Ship Positions

Schillplate

Last reported at 2015-Mar-06 02:29 UTC. Time now 2015-Mar-06 16:10 UTC.
Position N 37°09' W 009°39'.

Length 86 m; draft 4.8 m.

Type: Cargo ship. MMSI: 236111603.

Date/timePositionNaut miles runAvg speedWind from/ knotsBaromVisibWave heightAir tempDewpointWater temp
2015-Mar-06 02:29N 37°09' W 009°39'8 8.4
2015-Mar-06 01:30N 37°17' W 009°42'19 8.6
2015-Mar-05 23:21N 37°35' W 009°47'7 8.8
2015-Mar-05 22:33N 37°42' W 009°49'9 8.9
2015-Mar-05 21:33N 37°50' W 009°52'9 9.0
2015-Mar-05 20:33N 37°59' W 009°54'10 9.4
2015-Mar-05 19:29N 38°09' W 009°57'1511.0
2015-Mar-05 18:05N 38°24' W 010°00'611.3
2015-Mar-05 17:32N 38°30' W 010°02'1110.9
2015-Mar-05 16:31N 38°41' W 010°05'1310.7
2015-Mar-05 15:16N 38°54' W 010°04'1010.8
2015-Mar-05 14:20N 39°03' W 009°59'  
2015-Feb-25 12:33N 50°35' E 000°22'10 9.5
2015-Feb-25 11:27N 50°39' E 000°37'1010.9
2015-Feb-25 10:33N 50°44' E 000°50'2711.5
2015-Feb-25 08:11N 51°02' E 001°23'6 9.7
2015-Feb-25 07:34N 51°06' E 001°30'9 8.6
2015-Feb-25 06:34N 51°11' E 001°41'8 8.1
2015-Feb-25 05:34N 51°17' E 001°50'8 8.0
2015-Feb-25 04:33N 51°24' E 001°56'9 9.5
2015-Feb-25 03:34N 51°31' E 002°06'1010.2
2015-Feb-25 02:33N 51°39' E 002°17'138 9.2
2015-Feb-24 11:33N 53°27' E 004°37'6 6.2
2015-Feb-24 10:33N 53°30' E 004°47'6 5.8
2015-Feb-24 09:33N 53°32' E 004°56'6 6.5
2015-Feb-24 08:33N 53°34' E 005°06'7 6.7
2015-Feb-24 07:33N 53°37' E 005°16'8 8.0
2015-Feb-24 06:33N 53°39' E 005°29'9 9.3
2015-Feb-24 05:33N 53°42' E 005°44'8 8.5
2015-Feb-24 04:33N 53°45' E 005°57'  
Track history (hours):
 
Tides and Currents Weather Stations Pressure Air Temp Water Temp Dewpoint Dewpoint Depression Visibility Wind Speed Wind Dir Waves Ship Positions

Schillplate

Last reported at 2015-Mar-06 02:29 UTC. Time now 2015-Mar-06 16:10 UTC.
Position N 37°09' W 009°39'.

Length 86 m; draft 4.8 m.

Type: Cargo ship. MMSI: 236111603.

Date/timePositionNaut miles runAvg speedWind from/ knotsBaromVisibWave heightAir tempDewpointWater temp
2015-Mar-06 02:29N 37°09' W 009°39'8 8.4
2015-Mar-06 01:30N 37°17' W 009°42'19 8.6
2015-Mar-05 23:21N 37°35' W 009°47'7 8.8
2015-Mar-05 22:33N 37°42' W 009°49'9 8.9
2015-Mar-05 21:33N 37°50' W 009°52'9 9.0
2015-Mar-05 20:33N 37°59' W 009°54'10 9.4
2015-Mar-05 19:29N 38°09' W 009°57'1511.0
2015-Mar-05 18:05N 38°24' W 010°00'611.3
2015-Mar-05 17:32N 38°30' W 010°02'1110.9
2015-Mar-05 16:31N 38°41' W 010°05'1310.7
2015-Mar-05 15:16N 38°54' W 010°04'1010.8
2015-Mar-05 14:20N 39°03' W 009°59'  
2015-Feb-25 12:33N 50°35' E 000°22'10 9.5
2015-Feb-25 11:27N 50°39' E 000°37'1010.9
2015-Feb-25 10:33N 50°44' E 000°50'2711.5
2015-Feb-25 08:11N 51°02' E 001°23'6 9.7
2015-Feb-25 07:34N 51°06' E 001°30'9 8.6
2015-Feb-25 06:34N 51°11' E 001°41'8 8.1
2015-Feb-25 05:34N 51°17' E 001°50'8 8.0
2015-Feb-25 04:33N 51°24' E 001°56'9 9.5
2015-Feb-25 03:34N 51°31' E 002°06'1010.2
2015-Feb-25 02:33N 51°39' E 002°17'138 9.2
2015-Feb-24 11:33N 53°27' E 004°37'6 6.2
2015-Feb-24 10:33N 53°30' E 004°47'6 5.8
2015-Feb-24 09:33N 53°32' E 004°56'6 6.5
2015-Feb-24 08:33N 53°34' E 005°06'7 6.7
2015-Feb-24 07:33N 53°37' E 005°16'8 8.0
2015-Feb-24 06:33N 53°39' E 005°29'9 9.3
2015-Feb-24 05:33N 53°42' E 005°44'8 8.5
2015-Feb-24 04:33N 53°45' E 005°57'  

Dump ship's entire track history